Terminal Aerodrome Forecast
Issued by NWS Knoxville/Tri Cities, TN

Home | Current Version | Previous Version | Text Only | Print | Product List | Glossary On
Versions: 1 2 3 4 5 6 7 8 9 10 11 12 13
000
FTUS44 KMRX 231720
TAFTYS
TAF
KTYS 231720Z 2318/2418 23010KT P6SM SCT035 BKN250
     FM240100 23007KT P6SM VCTS BKN035CB
      TEMPO 2401/2405 3SM -TSRA OVC020CB
     FM240500 36003KT 6SM BR SCT025 OVC050
     FM241300 VRB03KT P6SM SCT050 BKN150=

USA.gov is the U.S. government's official web portal to all federal, state and local government web resources and services.